sensor_id;sensor_type;location;lat;lon;timestamp;temperature;humidity
18047;DHT22;9148;51.454;13.862;2022-11-15T00:00:51;8.70;99.90
18047;DHT22;9148;51.454;13.862;2022-11-15T00:03:25;7.90;99.90
18047;DHT22;9148;51.454;13.862;2022-11-15T00:05:52;8.40;99.90
18047;DHT22;9148;51.454;13.862;2022-11-15T00:08:17;8.60;99.90
18047;DHT22;9148;51.454;13.862;2022-11-15T00:10:54;8.40;99.90
18047;DHT22;9148;51.454;13.862;2022-11-15T00:13:24;8.40;99.90
18047;DHT22;9148;51.454;13.862;2022-11-15T00:15:49;8.30;99.90
18047;DHT22;9148;51.454;13.862;2022-11-15T00:18:16;8.40;99.90
18047;DHT22;9148;51.454;13.862;2022-11-15T00:20:42;8.40;99.90
18047;DHT22;9148;51.454;13.862;2022-11-15T00:23:08;8.90;99.90
18047;DHT22;9148;51.454;13.862;2022-11-15T00:25:34;8.30;99.90
18047;DHT22;9148;51.454;13.862;2022-11-15T00:28:00;8.30;99.90
18047;DHT22;9148;51.454;13.862;2022-11-15T00:30:26;8.30;99.90
18047;DHT22;9148;51.454;13.862;2022-11-15T00:32:52;8.40;99.90
18047;DHT22;9148;51.454;13.862;2022-11-15T00:35:19;8.60;99.90
18047;DHT22;9148;51.454;13.862;2022-11-15T00:37:45;8.40;99.90
18047;DHT22;9148;51.454;13.862;2022-11-15T00:40:12;8.40;99.90
18047;DHT22;9148;51.454;13.862;2022-11-15T00:42:39;8.40;99.90
18047;DHT22;9148;51.454;13.862;2022-11-15T00:45:05;8.40;99.90
18047;DHT22;9148;51.454;13.862;2022-11-15T00:47:31;8.30;99.90
18047;DHT22;9148;51.454;13.862;2022-11-15T00:49:57;8.30;99.90
18047;DHT22;9148;51.454;13.862;2022-11-15T00:52:23;8.30;99.90
18047;DHT22;9148;51.454;13.862;2022-11-15T00:54:48;8.30;99.90
18047;DHT22;9148;51.454;13.862;2022-11-15T00:57:14;8.30;99.90
18047;DHT22;9148;51.454;13.862;2022-11-15T00:59:40;8.30;99.90
18047;DHT22;9148;51.454;13.862;2022-11-15T01:02:05;8.60;99.90
18047;DHT22;9148;51.454;13.862;2022-11-15T01:04:31;8.40;99.90
18047;DHT22;9148;51.454;13.862;2022-11-15T01:06:56;8.10;99.90
18047;DHT22;9148;51.454;13.862;2022-11-15T01:09:22;8.40;99.90
18047;DHT22;9148;51.454;13.862;2022-11-15T01:11:48;8.10;99.90
18047;DHT22;9148;51.454;13.862;2022-11-15T01:14:13;8.10;99.90
18047;DHT22;9148;51.454;13.862;2022-11-15T01:16:39;8.60;99.90
18047;DHT22;9148;51.454;13.862;2022-11-15T01:19:05;8.50;99.90
18047;DHT22;9148;51.454;13.862;2022-11-15T01:21:30;8.40;99.90
18047;DHT22;9148;51.454;13.862;2022-11-15T01:23:56;8.10;99.90
18047;DHT22;9148;51.454;13.862;2022-11-15T01:26:23;8.60;99.90
18047;DHT22;9148;51.454;13.862;2022-11-15T01:28:49;8.00;99.90
18047;DHT22;9148;51.454;13.862;2022-11-15T01:31:17;8.00;99.90
18047;DHT22;9148;51.454;13.862;2022-11-15T01:33:45;8.30;99.90
18047;DHT22;9148;51.454;13.862;2022-11-15T01:36:19;8.00;99.90
18047;DHT22;9148;51.454;13.862;2022-11-15T01:38:58;7.80;99.90
18047;DHT22;9148;51.454;13.862;2022-11-15T01:41:30;7.80;99.90
18047;DHT22;9148;51.454;13.862;2022-11-15T01:44:34;8.00;99.90
18047;DHT22;9148;51.454;13.862;2022-11-15T01:47:24;7.90;99.90
18047;DHT22;9148;51.454;13.862;2022-11-15T01:50:04;7.80;99.90
18047;DHT22;9148;51.454;13.862;2022-11-15T01:52:36;7.70;99.90
18047;DHT22;9148;51.454;13.862;2022-11-15T01:55:19;8.20;99.90
18047;DHT22;9148;51.454;13.862;2022-11-15T01:57:50;8.20;99.90
18047;DHT22;9148;51.454;13.862;2022-11-15T02:00:18;7.70;99.90
18047;DHT22;9148;51.454;13.862;2022-11-15T02:02:44;7.70;99.90
18047;DHT22;9148;51.454;13.862;2022-11-15T02:05:09;8.00;99.90
18047;DHT22;9148;51.454;13.862;2022-11-15T02:07:36;7.60;99.90
18047;DHT22;9148;51.454;13.862;2022-11-15T02:10:13;7.60;99.90
18047;DHT22;9148;51.454;13.862;2022-11-15T02:12:44;7.60;99.90
18047;DHT22;9148;51.454;13.862;2022-11-15T02:15:11;7.50;99.90
18047;DHT22;9148;51.454;13.862;2022-11-15T02:18:11;7.50;99.90
18047;DHT22;9148;51.454;13.862;2022-11-15T02:20:53;7.50;99.90
18047;DHT22;9148;51.454;13.862;2022-11-15T02:24:00;7.50;99.90
18047;DHT22;9148;51.454;13.862;2022-11-15T02:26:41;7.40;99.90
18047;DHT22;9148;51.454;13.862;2022-11-15T02:30:00;7.40;99.90
18047;DHT22;9148;51.454;13.862;2022-11-15T02:32:39;7.30;99.90
18047;DHT22;9148;51.454;13.862;2022-11-15T02:38:17;7.30;99.90
18047;DHT22;9148;51.454;13.862;2022-11-15T02:41:00;7.30;99.90
18047;DHT22;9148;51.454;13.862;2022-11-15T02:44:07;7.70;99.90
18047;DHT22;9148;51.454;13.862;2022-11-15T02:49:37;7.90;99.90
18047;DHT22;9148;51.454;13.862;2022-11-15T02:52:03;7.30;99.90
18047;DHT22;9148;51.454;13.862;2022-11-15T02:54:33;7.30;99.90
18047;DHT22;9148;51.454;13.862;2022-11-15T02:57:05;7.80;99.90
18047;DHT22;9148;51.454;13.862;2022-11-15T02:59:48;7.20;99.90
18047;DHT22;9148;51.454;13.862;2022-11-15T03:02:42;7.30;99.90
18047;DHT22;9148;51.454;13.862;2022-11-15T03:08:08;7.30;99.90
18047;DHT22;9148;51.454;13.862;2022-11-15T03:10:46;7.70;99.90
18047;DHT22;9148;51.454;13.862;2022-11-15T03:13:38;7.30;99.90
18047;DHT22;9148;51.454;13.862;2022-11-15T03:16:25;7.30;99.90
18047;DHT22;9148;51.454;13.862;2022-11-15T03:19:12;7.40;99.90
18047;DHT22;9148;51.454;13.862;2022-11-15T03:21:40;7.40;99.90
18047;DHT22;9148;51.454;13.862;2022-11-15T03:24:07;7.40;99.90
18047;DHT22;9148;51.454;13.862;2022-11-15T03:26:36;7.60;99.90
18047;DHT22;9148;51.454;13.862;2022-11-15T03:29:08;7.90;99.90
18047;DHT22;9148;51.454;13.862;2022-11-15T03:31:42;7.40;99.90
18047;DHT22;9148;51.454;13.862;2022-11-15T03:34:31;7.40;99.90
18047;DHT22;9148;51.454;13.862;2022-11-15T03:37:00;7.40;99.90
18047;DHT22;9148;51.454;13.862;2022-11-15T03:39:27;7.70;99.90
18047;DHT22;9148;51.454;13.862;2022-11-15T03:44:54;7.80;99.90
18047;DHT22;9148;51.454;13.862;2022-11-15T03:47:38;7.30;99.90
18047;DHT22;9148;51.454;13.862;2022-11-15T03:50:15;7.20;99.90
18047;DHT22;9148;51.454;13.862;2022-11-15T03:52:45;7.20;99.90
18047;DHT22;9148;51.454;13.862;2022-11-15T03:55:16;7.20;99.90
18047;DHT22;9148;51.454;13.862;2022-11-15T03:57:43;7.20;99.90
18047;DHT22;9148;51.454;13.862;2022-11-15T04:00:10;7.10;99.90
18047;DHT22;9148;51.454;13.862;2022-11-15T04:02:36;7.10;99.90
18047;DHT22;9148;51.454;13.862;2022-11-15T04:05:02;7.10;99.90
18047;DHT22;9148;51.454;13.862;2022-11-15T04:07:28;7.10;99.90
18047;DHT22;9148;51.454;13.862;2022-11-15T04:09:54;7.50;99.90
18047;DHT22;9148;51.454;13.862;2022-11-15T04:12:30;7.00;99.90
18047;DHT22;9148;51.454;13.862;2022-11-15T04:15:08;6.90;99.90
18047;DHT22;9148;51.454;13.862;2022-11-15T04:17:39;6.90;99.90
18047;DHT22;9148;51.454;13.862;2022-11-15T04:20:14;7.10;99.90
18047;DHT22;9148;51.454;13.862;2022-11-15T04:23:09;6.80;99.90
18047;DHT22;9148;51.454;13.862;2022-11-15T04:25:57;6.80;99.90
18047;DHT22;9148;51.454;13.862;2022-11-15T04:28:25;6.70;99.90
18047;DHT22;9148;51.454;13.862;2022-11-15T04:30:51;6.70;99.90
18047;DHT22;9148;51.454;13.862;2022-11-15T04:33:17;6.80;99.90
18047;DHT22;9148;51.454;13.862;2022-11-15T04:35:43;6.80;99.90
18047;DHT22;9148;51.454;13.862;2022-11-15T04:38:10;6.80;99.90
18047;DHT22;9148;51.454;13.862;2022-11-15T04:40:37;6.70;99.90
18047;DHT22;9148;51.454;13.862;2022-11-15T04:43:03;6.80;99.90
18047;DHT22;9148;51.454;13.862;2022-11-15T04:45:29;6.80;99.90
18047;DHT22;9148;51.454;13.862;2022-11-15T04:47:55;6.90;99.90
18047;DHT22;9148;51.454;13.862;2022-11-15T04:50:21;6.90;99.90
18047;DHT22;9148;51.454;13.862;2022-11-15T04:52:52;7.60;99.90
18047;DHT22;9148;51.454;13.862;2022-11-15T04:55:18;7.10;99.90
18047;DHT22;9148;51.454;13.862;2022-11-15T04:57:44;6.90;99.90
18047;DHT22;9148;51.454;13.862;2022-11-15T05:00:13;6.90;99.90
18047;DHT22;9148;51.454;13.862;2022-11-15T05:02:40;6.80;99.90
18047;DHT22;9148;51.454;13.862;2022-11-15T05:05:25;6.80;99.90
18047;DHT22;9148;51.454;13.862;2022-11-15T05:07:50;6.80;99.90
18047;DHT22;9148;51.454;13.862;2022-11-15T05:10:17;6.70;99.90
18047;DHT22;9148;51.454;13.862;2022-11-15T05:12:42;6.90;99.90
18047;DHT22;9148;51.454;13.862;2022-11-15T05:15:08;6.50;99.90
18047;DHT22;9148;51.454;13.862;2022-11-15T05:17:34;6.50;99.90
18047;DHT22;9148;51.454;13.862;2022-11-15T05:20:00;6.30;99.90
18047;DHT22;9148;51.454;13.862;2022-11-15T05:22:26;6.20;99.90
18047;DHT22;9148;51.454;13.862;2022-11-15T05:24:52;6.70;99.90
18047;DHT22;9148;51.454;13.862;2022-11-15T05:27:18;6.10;99.90
18047;DHT22;9148;51.454;13.862;2022-11-15T05:29:43;6.00;99.90
18047;DHT22;9148;51.454;13.862;2022-11-15T05:32:09;5.80;99.90
18047;DHT22;9148;51.454;13.862;2022-11-15T05:34:37;5.80;99.90
18047;DHT22;9148;51.454;13.862;2022-11-15T05:37:03;5.70;99.90
18047;DHT22;9148;51.454;13.862;2022-11-15T05:39:29;5.50;99.90
18047;DHT22;9148;51.454;13.862;2022-11-15T05:42:11;5.50;99.90
18047;DHT22;9148;51.454;13.862;2022-11-15T05:44:44;5.40;99.90
18047;DHT22;9148;51.454;13.862;2022-11-15T05:47:21;5.30;99.90
18047;DHT22;9148;51.454;13.862;2022-11-15T05:49:50;5.20;99.90
18047;DHT22;9148;51.454;13.862;2022-11-15T05:52:21;5.20;99.90
18047;DHT22;9148;51.454;13.862;2022-11-15T05:54:49;5.00;99.90
18047;DHT22;9148;51.454;13.862;2022-11-15T05:57:15;5.00;99.90
18047;DHT22;9148;51.454;13.862;2022-11-15T05:59:42;5.00;99.90
18047;DHT22;9148;51.454;13.862;2022-11-15T06:02:09;4.90;99.90
18047;DHT22;9148;51.454;13.862;2022-11-15T06:04:35;4.80;99.90
18047;DHT22;9148;51.454;13.862;2022-11-15T06:07:00;4.80;99.90
18047;DHT22;9148;51.454;13.862;2022-11-15T06:09:26;4.70;99.90
18047;DHT22;9148;51.454;13.862;2022-11-15T06:11:52;4.70;99.90
18047;DHT22;9148;51.454;13.862;2022-11-15T06:14:18;4.60;99.90
18047;DHT22;9148;51.454;13.862;2022-11-15T06:16:44;4.60;99.90
18047;DHT22;9148;51.454;13.862;2022-11-15T06:19:09;4.50;99.90
18047;DHT22;9148;51.454;13.862;2022-11-15T06:21:35;4.50;99.90
18047;DHT22;9148;51.454;13.862;2022-11-15T06:24:01;4.50;99.90
18047;DHT22;9148;51.454;13.862;2022-11-15T06:26:27;4.40;99.90
18047;DHT22;9148;51.454;13.862;2022-11-15T06:28:52;4.40;99.90
18047;DHT22;9148;51.454;13.862;2022-11-15T06:31:18;4.30;99.90
18047;DHT22;9148;51.454;13.862;2022-11-15T06:33:43;4.40;99.90
18047;DHT22;9148;51.454;13.862;2022-11-15T06:36:11;4.40;99.90
18047;DHT22;9148;51.454;13.862;2022-11-15T06:38:42;4.30;99.90
18047;DHT22;9148;51.454;13.862;2022-11-15T06:41:10;4.80;99.90
18047;DHT22;9148;51.454;13.862;2022-11-15T06:43:36;4.30;99.90
18047;DHT22;9148;51.454;13.862;2022-11-15T06:46:03;4.30;99.90
18047;DHT22;9148;51.454;13.862;2022-11-15T06:48:30;4.30;99.90
18047;DHT22;9148;51.454;13.862;2022-11-15T06:50:58;4.30;99.90
18047;DHT22;9148;51.454;13.862;2022-11-15T06:53:26;4.40;99.90
18047;DHT22;9148;51.454;13.862;2022-11-15T06:55:52;4.40;99.90
18047;DHT22;9148;51.454;13.862;2022-11-15T06:58:18;4.50;99.90
18047;DHT22;9148;51.454;13.862;2022-11-15T07:00:44;4.60;99.90
18047;DHT22;9148;51.454;13.862;2022-11-15T07:03:10;4.70;99.90
18047;DHT22;9148;51.454;13.862;2022-11-15T07:05:36;4.80;99.90
18047;DHT22;9148;51.454;13.862;2022-11-15T07:08:01;5.00;99.90
18047;DHT22;9148;51.454;13.862;2022-11-15T07:10:28;5.10;99.90
18047;DHT22;9148;51.454;13.862;2022-11-15T07:12:55;5.20;99.90
18047;DHT22;9148;51.454;13.862;2022-11-15T07:15:24;5.40;99.90
18047;DHT22;9148;51.454;13.862;2022-11-15T07:17:50;5.60;99.90
18047;DHT22;9148;51.454;13.862;2022-11-15T07:20:16;5.90;99.90
18047;DHT22;9148;51.454;13.862;2022-11-15T07:22:43;6.00;99.90
18047;DHT22;9148;51.454;13.862;2022-11-15T07:25:10;6.20;99.90
18047;DHT22;9148;51.454;13.862;2022-11-15T07:27:36;6.40;99.90
18047;DHT22;9148;51.454;13.862;2022-11-15T07:30:03;6.60;99.90
18047;DHT22;9148;51.454;13.862;2022-11-15T07:32:29;6.90;99.90
18047;DHT22;9148;51.454;13.862;2022-11-15T07:34:55;7.20;99.90
18047;DHT22;9148;51.454;13.862;2022-11-15T07:37:21;7.90;99.90
18047;DHT22;9148;51.454;13.862;2022-11-15T07:39:46;7.60;99.90
18047;DHT22;9148;51.454;13.862;2022-11-15T07:42:12;8.20;99.90
18047;DHT22;9148;51.454;13.862;2022-11-15T07:44:56;8.40;99.90
18047;DHT22;9148;51.454;13.862;2022-11-15T07:47:22;8.30;99.90
18047;DHT22;9148;51.454;13.862;2022-11-15T07:49:47;8.60;99.90
18047;DHT22;9148;51.454;13.862;2022-11-15T07:52:13;8.90;99.90
18047;DHT22;9148;51.454;13.862;2022-11-15T07:54:39;9.10;99.90
18047;DHT22;9148;51.454;13.862;2022-11-15T07:57:05;9.40;99.90
18047;DHT22;9148;51.454;13.862;2022-11-15T07:59:32;9.70;99.90
18047;DHT22;9148;51.454;13.862;2022-11-15T08:01:58;10.00;99.90
18047;DHT22;9148;51.454;13.862;2022-11-15T08:04:23;10.30;99.90
18047;DHT22;9148;51.454;13.862;2022-11-15T08:06:49;10.60;99.90
18047;DHT22;9148;51.454;13.862;2022-11-15T08:09:15;10.90;99.90
18047;DHT22;9148;51.454;13.862;2022-11-15T08:11:40;11.20;99.90
18047;DHT22;9148;51.454;13.862;2022-11-15T08:14:06;11.50;99.90
18047;DHT22;9148;51.454;13.862;2022-11-15T08:16:31;11.90;99.90
18047;DHT22;9148;51.454;13.862;2022-11-15T08:18:57;12.20;99.90
18047;DHT22;9148;51.454;13.862;2022-11-15T08:21:23;12.50;99.90
18047;DHT22;9148;51.454;13.862;2022-11-15T08:23:49;12.80;99.90
18047;DHT22;9148;51.454;13.862;2022-11-15T08:26:14;13.10;99.90
18047;DHT22;9148;51.454;13.862;2022-11-15T08:28:41;13.30;99.90
18047;DHT22;9148;51.454;13.862;2022-11-15T08:31:06;13.50;99.90
18047;DHT22;9148;51.454;13.862;2022-11-15T08:33:32;13.80;99.90
18047;DHT22;9148;51.454;13.862;2022-11-15T08:36:00;14.00;99.90
18047;DHT22;9148;51.454;13.862;2022-11-15T08:38:26;14.40;99.90
18047;DHT22;9148;51.454;13.862;2022-11-15T08:41:00;14.60;99.90
18047;DHT22;9148;51.454;13.862;2022-11-15T08:43:27;14.90;99.90
18047;DHT22;9148;51.454;13.862;2022-11-15T08:45:56;15.20;99.90
18047;DHT22;9148;51.454;13.862;2022-11-15T08:48:22;15.50;99.90
18047;DHT22;9148;51.454;13.862;2022-11-15T08:50:48;15.70;99.90
18047;DHT22;9148;51.454;13.862;2022-11-15T08:53:13;15.90;99.90
18047;DHT22;9148;51.454;13.862;2022-11-15T08:55:40;16.00;99.90
18047;DHT22;9148;51.454;13.862;2022-11-15T08:58:06;15.90;99.90
18047;DHT22;9148;51.454;13.862;2022-11-15T09:00:32;15.80;99.90
18047;DHT22;9148;51.454;13.862;2022-11-15T09:02:58;15.80;99.90
18047;DHT22;9148;51.454;13.862;2022-11-15T09:05:25;15.80;99.90
18047;DHT22;9148;51.454;13.862;2022-11-15T09:07:54;15.80;99.90
18047;DHT22;9148;51.454;13.862;2022-11-15T09:10:20;15.70;99.90
18047;DHT22;9148;51.454;13.862;2022-11-15T09:12:47;15.80;99.90
18047;DHT22;9148;51.454;13.862;2022-11-15T09:15:14;15.90;99.20
18047;DHT22;9148;51.454;13.862;2022-11-15T09:17:41;15.90;98.60
18047;DHT22;9148;51.454;13.862;2022-11-15T09:20:07;16.00;97.60
18047;DHT22;9148;51.454;13.862;2022-11-15T09:22:34;16.10;98.40
18047;DHT22;9148;51.454;13.862;2022-11-15T09:25:00;16.20;97.40
18047;DHT22;9148;51.454;13.862;2022-11-15T09:27:29;16.30;97.60
18047;DHT22;9148;51.454;13.862;2022-11-15T09:29:55;16.50;96.70
18047;DHT22;9148;51.454;13.862;2022-11-15T09:32:21;16.60;96.40
18047;DHT22;9148;51.454;13.862;2022-11-15T09:34:51;16.60;94.60
18047;DHT22;9148;51.454;13.862;2022-11-15T09:37:17;16.60;94.00
18047;DHT22;9148;51.454;13.862;2022-11-15T09:39:42;16.60;93.00
18047;DHT22;9148;51.454;13.862;2022-11-15T09:42:12;16.60;93.20
18047;DHT22;9148;51.454;13.862;2022-11-15T09:44:44;16.70;93.80
18047;DHT22;9148;51.454;13.862;2022-11-15T09:50:39;17.00;92.80
18047;DHT22;9148;51.454;13.862;2022-11-15T09:53:12;17.00;91.70
18047;DHT22;9148;51.454;13.862;2022-11-15T09:55:56;17.10;91.30
18047;DHT22;9148;51.454;13.862;2022-11-15T10:01:11;17.20;90.60
18047;DHT22;9148;51.454;13.862;2022-11-15T10:03:49;17.30;90.70
18047;DHT22;9148;51.454;13.862;2022-11-15T10:06:26;17.40;90.90
18047;DHT22;9148;51.454;13.862;2022-11-15T10:09:06;17.60;90.90
18047;DHT22;9148;51.454;13.862;2022-11-15T10:11:38;17.80;89.10
18047;DHT22;9148;51.454;13.862;2022-11-15T10:14:11;17.90;88.80
18047;DHT22;9148;51.454;13.862;2022-11-15T10:17:02;18.10;89.50
18047;DHT22;9148;51.454;13.862;2022-11-15T10:22:35;18.80;88.80
18047;DHT22;9148;51.454;13.862;2022-11-15T10:28:00;19.10;84.00
18047;DHT22;9148;51.454;13.862;2022-11-15T10:30:40;19.30;84.00
18047;DHT22;9148;51.454;13.862;2022-11-15T10:46:43;19.80;75.30
18047;DHT22;9148;51.454;13.862;2022-11-15T10:51:48;19.90;74.00
18047;DHT22;9148;51.454;13.862;2022-11-15T10:54:24;20.00;73.30
18047;DHT22;9148;51.454;13.862;2022-11-15T10:56:55;20.10;72.10
18047;DHT22;9148;51.454;13.862;2022-11-15T10:59:27;20.10;71.40
18047;DHT22;9148;51.454;13.862;2022-11-15T11:01:57;20.20;71.70
18047;DHT22;9148;51.454;13.862;2022-11-15T11:04:23;20.30;70.00
18047;DHT22;9148;51.454;13.862;2022-11-15T11:06:57;20.50;70.90
18047;DHT22;9148;51.454;13.862;2022-11-15T11:09:39;20.70;70.40
18047;DHT22;9148;51.454;13.862;2022-11-15T11:12:10;20.80;69.60
18047;DHT22;9148;51.454;13.862;2022-11-15T11:14:38;21.10;67.30
18047;DHT22;9148;51.454;13.862;2022-11-15T11:23:15;21.80;65.20
18047;DHT22;9148;51.454;13.862;2022-11-15T11:29:02;22.20;64.30
18047;DHT22;9148;51.454;13.862;2022-11-15T11:31:43;22.30;63.40
18047;DHT22;9148;51.454;13.862;2022-11-15T11:37:44;22.50;59.50
18047;DHT22;9148;51.454;13.862;2022-11-15T11:40:37;22.40;59.70
18047;DHT22;9148;51.454;13.862;2022-11-15T11:46:32;22.40;59.20
18047;DHT22;9148;51.454;13.862;2022-11-15T11:49:10;22.20;59.30
18047;DHT22;9148;51.454;13.862;2022-11-15T11:51:48;22.20;58.60
18047;DHT22;9148;51.454;13.862;2022-11-15T11:57:22;22.00;58.50
18047;DHT22;9148;51.454;13.862;2022-11-15T11:59:58;21.90;59.10
18047;DHT22;9148;51.454;13.862;2022-11-15T12:02:42;21.90;59.60
18047;DHT22;9148;51.454;13.862;2022-11-15T12:05:12;22.00;59.00
18047;DHT22;9148;51.454;13.862;2022-11-15T12:07:43;22.10;57.40
18047;DHT22;9148;51.454;13.862;2022-11-15T12:10:24;22.00;57.10
18047;DHT22;9148;51.454;13.862;2022-11-15T12:13:13;21.80;57.10
18047;DHT22;9148;51.454;13.862;2022-11-15T12:15:57;21.60;57.80
18047;DHT22;9148;51.454;13.862;2022-11-15T12:18:28;21.60;58.00
18047;DHT22;9148;51.454;13.862;2022-11-15T12:20:58;21.60;58.10
18047;DHT22;9148;51.454;13.862;2022-11-15T12:23:39;21.70;57.80
18047;DHT22;9148;51.454;13.862;2022-11-15T12:26:11;21.60;57.10
18047;DHT22;9148;51.454;13.862;2022-11-15T12:28:51;21.50;57.90
18047;DHT22;9148;51.454;13.862;2022-11-15T12:34:02;21.50;58.00
18047;DHT22;9148;51.454;13.862;2022-11-15T12:36:39;21.50;57.60
18047;DHT22;9148;51.454;13.862;2022-11-15T12:39:10;21.50;57.80
18047;DHT22;9148;51.454;13.862;2022-11-15T12:42:01;21.50;58.20
18047;DHT22;9148;51.454;13.862;2022-11-15T12:47:23;21.50;57.60
18047;DHT22;9148;51.454;13.862;2022-11-15T12:49:51;21.60;57.40
18047;DHT22;9148;51.454;13.862;2022-11-15T12:52:17;21.50;57.00
18047;DHT22;9148;51.454;13.862;2022-11-15T12:59:54;21.10;56.60
18047;DHT22;9148;51.454;13.862;2022-11-15T13:02:30;21.00;56.60
18047;DHT22;9148;51.454;13.862;2022-11-15T13:12:57;20.80;58.60
18047;DHT22;9148;51.454;13.862;2022-11-15T13:15:35;20.80;59.00
18047;DHT22;9148;51.454;13.862;2022-11-15T13:18:36;20.80;59.10
18047;DHT22;9148;51.454;13.862;2022-11-15T13:21:05;20.80;59.50
18047;DHT22;9148;51.454;13.862;2022-11-15T13:24:03;20.70;59.20
18047;DHT22;9148;51.454;13.862;2022-11-15T13:26:29;20.60;59.80
18047;DHT22;9148;51.454;13.862;2022-11-15T13:28:54;20.50;59.50
18047;DHT22;9148;51.454;13.862;2022-11-15T13:31:37;20.30;59.60
18047;DHT22;9148;51.454;13.862;2022-11-15T13:34:28;20.10;59.90
18047;DHT22;9148;51.454;13.862;2022-11-15T13:36:55;19.80;60.00
18047;DHT22;9148;51.454;13.862;2022-11-15T13:39:31;19.60;60.80
18047;DHT22;9148;51.454;13.862;2022-11-15T13:41:59;19.40;61.20
18047;DHT22;9148;51.454;13.862;2022-11-15T13:44:29;19.30;62.20
18047;DHT22;9148;51.454;13.862;2022-11-15T13:47:12;19.20;62.90
18047;DHT22;9148;51.454;13.862;2022-11-15T13:49:39;19.10;63.20
18047;DHT22;9148;51.454;13.862;2022-11-15T13:52:09;19.00;63.80
18047;DHT22;9148;51.454;13.862;2022-11-15T13:54:44;19.00;63.90
18047;DHT22;9148;51.454;13.862;2022-11-15T13:57:25;19.00;64.30
18047;DHT22;9148;51.454;13.862;2022-11-15T14:00:30;18.90;64.80
18047;DHT22;9148;51.454;13.862;2022-11-15T14:02:57;18.80;64.80
18047;DHT22;9148;51.454;13.862;2022-11-15T14:05:31;18.70;65.00
18047;DHT22;9148;51.454;13.862;2022-11-15T14:08:03;18.50;65.30
18047;DHT22;9148;51.454;13.862;2022-11-15T14:10:38;18.30;66.20
18047;DHT22;9148;51.454;13.862;2022-11-15T14:16:12;17.70;67.90
18047;DHT22;9148;51.454;13.862;2022-11-15T14:21:17;17.10;70.00
18047;DHT22;9148;51.454;13.862;2022-11-15T14:23:43;16.80;71.10
18047;DHT22;9148;51.454;13.862;2022-11-15T14:26:31;16.60;72.30
18047;DHT22;9148;51.454;13.862;2022-11-15T14:29:24;16.40;73.40
18047;DHT22;9148;51.454;13.862;2022-11-15T14:31:52;16.20;75.00
18047;DHT22;9148;51.454;13.862;2022-11-15T14:34:18;16.10;76.20
18047;DHT22;9148;51.454;13.862;2022-11-15T14:36:46;15.90;77.10
18047;DHT22;9148;51.454;13.862;2022-11-15T14:39:12;15.70;78.20
18047;DHT22;9148;51.454;13.862;2022-11-15T14:41:38;15.50;79.20
18047;DHT22;9148;51.454;13.862;2022-11-15T14:44:04;15.30;80.30
18047;DHT22;9148;51.454;13.862;2022-11-15T14:46:31;15.20;81.60
18047;DHT22;9148;51.454;13.862;2022-11-15T14:48:57;15.00;82.90
18047;DHT22;9148;51.454;13.862;2022-11-15T14:51:22;14.90;84.40
18047;DHT22;9148;51.454;13.862;2022-11-15T14:53:48;14.70;85.60
18047;DHT22;9148;51.454;13.862;2022-11-15T14:56:15;14.60;86.90
18047;DHT22;9148;51.454;13.862;2022-11-15T14:58:42;14.40;88.40
18047;DHT22;9148;51.454;13.862;2022-11-15T15:01:34;14.30;90.00
18047;DHT22;9148;51.454;13.862;2022-11-15T15:03:59;14.10;90.30
18047;DHT22;9148;51.454;13.862;2022-11-15T15:06:25;14.00;90.90
18047;DHT22;9148;51.454;13.862;2022-11-15T15:08:51;13.80;91.40
18047;DHT22;9148;51.454;13.862;2022-11-15T15:11:21;13.70;91.90
18047;DHT22;9148;51.454;13.862;2022-11-15T15:13:48;13.60;92.70
18047;DHT22;9148;51.454;13.862;2022-11-15T15:16:14;13.50;93.20
18047;DHT22;9148;51.454;13.862;2022-11-15T15:18:40;13.40;93.80
18047;DHT22;9148;51.454;13.862;2022-11-15T15:21:26;13.20;94.10
18047;DHT22;9148;51.454;13.862;2022-11-15T15:23:53;13.10;94.50
18047;DHT22;9148;51.454;13.862;2022-11-15T15:26:19;13.00;94.90
18047;DHT22;9148;51.454;13.862;2022-11-15T15:28:45;12.90;95.30
18047;DHT22;9148;51.454;13.862;2022-11-15T15:31:14;12.80;95.80
18047;DHT22;9148;51.454;13.862;2022-11-15T15:33:40;12.70;96.80
18047;DHT22;9148;51.454;13.862;2022-11-15T15:36:13;12.60;98.10
18047;DHT22;9148;51.454;13.862;2022-11-15T15:38:39;12.40;98.90
18047;DHT22;9148;51.454;13.862;2022-11-15T15:41:10;12.30;99.40
18047;DHT22;9148;51.454;13.862;2022-11-15T15:43:37;12.20;99.70
18047;DHT22;9148;51.454;13.862;2022-11-15T15:46:03;12.00;99.90
18047;DHT22;9148;51.454;13.862;2022-11-15T15:48:28;11.90;99.90
18047;DHT22;9148;51.454;13.862;2022-11-15T15:50:54;11.70;99.90
18047;DHT22;9148;51.454;13.862;2022-11-15T15:53:19;11.60;99.90
18047;DHT22;9148;51.454;13.862;2022-11-15T15:55:45;11.60;99.90
18047;DHT22;9148;51.454;13.862;2022-11-15T15:58:11;11.40;99.90
18047;DHT22;9148;51.454;13.862;2022-11-15T16:00:37;11.30;99.90
18047;DHT22;9148;51.454;13.862;2022-11-15T16:03:03;11.30;99.90
18047;DHT22;9148;51.454;13.862;2022-11-15T16:05:29;11.10;99.90
18047;DHT22;9148;51.454;13.862;2022-11-15T16:07:54;11.00;99.90
18047;DHT22;9148;51.454;13.862;2022-11-15T16:10:24;11.00;99.90
18047;DHT22;9148;51.454;13.862;2022-11-15T16:12:51;10.90;99.90
18047;DHT22;9148;51.454;13.862;2022-11-15T16:15:18;10.70;99.90
18047;DHT22;9148;51.454;13.862;2022-11-15T16:17:49;10.70;99.90
18047;DHT22;9148;51.454;13.862;2022-11-15T16:20:39;10.60;99.90
18047;DHT22;9148;51.454;13.862;2022-11-15T16:23:09;10.50;99.90
18047;DHT22;9148;51.454;13.862;2022-11-15T16:28:21;10.40;99.90
18047;DHT22;9148;51.454;13.862;2022-11-15T16:30:59;10.20;99.90
18047;DHT22;9148;51.454;13.862;2022-11-15T16:33:28;10.10;99.90
18047;DHT22;9148;51.454;13.862;2022-11-15T16:35:54;10.10;99.90
18047;DHT22;9148;51.454;13.862;2022-11-15T16:38:20;10.00;99.90
18047;DHT22;9148;51.454;13.862;2022-11-15T16:40:46;9.90;99.90
18047;DHT22;9148;51.454;13.862;2022-11-15T16:43:11;9.80;99.90
18047;DHT22;9148;51.454;13.862;2022-11-15T16:45:37;9.70;99.90
18047;DHT22;9148;51.454;13.862;2022-11-15T16:48:03;9.60;99.90
18047;DHT22;9148;51.454;13.862;2022-11-15T16:50:31;9.60;99.90
18047;DHT22;9148;51.454;13.862;2022-11-15T16:53:04;9.40;99.90
18047;DHT22;9148;51.454;13.862;2022-11-15T16:55:29;9.30;99.90
18047;DHT22;9148;51.454;13.862;2022-11-15T16:57:56;9.20;99.90
18047;DHT22;9148;51.454;13.862;2022-11-15T17:00:23;9.10;99.90
18047;DHT22;9148;51.454;13.862;2022-11-15T17:02:50;9.00;99.90
18047;DHT22;9148;51.454;13.862;2022-11-15T17:05:17;8.90;99.90
18047;DHT22;9148;51.454;13.862;2022-11-15T17:07:50;8.80;99.90
18047;DHT22;9148;51.454;13.862;2022-11-15T17:10:20;8.70;99.90
18047;DHT22;9148;51.454;13.862;2022-11-15T17:12:47;9.00;99.90
18047;DHT22;9148;51.454;13.862;2022-11-15T17:15:13;8.70;99.90
18047;DHT22;9148;51.454;13.862;2022-11-15T17:17:40;8.50;99.90
18047;DHT22;9148;51.454;13.862;2022-11-15T17:20:12;8.40;99.90
18047;DHT22;9148;51.454;13.862;2022-11-15T17:22:39;8.30;99.90
18047;DHT22;9148;51.454;13.862;2022-11-15T17:25:05;8.60;99.90
18047;DHT22;9148;51.454;13.862;2022-11-15T17:27:31;8.20;99.90